Nippon Maru — 3FDA7 — position and weather

sailwx.info

Track history (hours):
 
Tides and Currents Weather Stations Pressure Air Temp Water Temp Dewpoint Dewpoint Depression Visibility Wind Speed Wind Dir Waves Ship Positions

Nippon Maru

Last reported at 2015-Jul-13 15:31 UTC. Time now 2015-Aug-04 01:21 UTC.
Position S 04°17' E 115°45'.
Warning: this ship's position is 21 days out of date.

Length 190 m; draft 6.3 m.

Type: Cargo ship. MMSI: 353814000.

Date/timePositionNaut miles runAvg speedWind from/ knotsBaromVisibWave heightAir tempDewpointWater temp
2015-Jul-13 15:31S 04°17' E 115°45'1312.6
2015-Jul-13 14:32S 04°18' E 115°33'11412.7
2015-Jul-13 05:32S 04°22' E 113°38'1311.6
2015-Jul-13 04:27S 04°21' E 113°26'3711.8
2015-Jul-13 01:21S 04°16' E 112°49'  
2015-Jul-10 19:32N 01°17' E 104°17'1414.1
2015-Jul-10 18:33N 01°15' E 104°03'1413.7
2015-Jul-10 17:33N 01°11' E 103°50'16 7.7
2015-Jul-10 15:30N 01°11' E 103°34'8 7.9
2015-Jul-10 14:33N 01°10' E 103°42'1 0.7
2015-Jul-10 13:24N 01°11' E 103°43'0 0.0
2015-Jul-10 12:12N 01°11' E 103°43'0 0.0
2015-Jul-10 11:24N 01°11' E 103°43'0 0.0
2015-Jul-10 08:15N 01°11' E 103°43'0 0.0
2015-Jul-10 07:30N 01°11' E 103°43'0 0.1
2015-Jul-10 06:27N 01°11' E 103°43'0 0.0
2015-Jul-10 04:30N 01°11' E 103°43'0 0.1
2015-Jul-10 03:24N 01°11' E 103°43'0 0.0
2015-Jul-10 02:12N 01°11' E 103°43'0 0.0
2015-Jul-10 00:33N 01°10' E 103°43'5 4.6
2015-Jul-09 23:32N 01°14' E 103°40'1 0.8
2015-Jul-09 22:30N 01°15' E 103°40'0 0.0
2015-Jul-09 21:33N 01°15' E 103°40'0 0.0
2015-Jul-09 19:27N 01°15' E 103°40'0 0.0
2015-Jul-09 18:21N 01°15' E 103°40'0 0.0
2015-Jul-09 17:30N 01°15' E 103°40'0 0.0
2015-Jul-09 16:09N 01°15' E 103°40'0 0.0
2015-Jul-09 15:27N 01°15' E 103°40'0 0.0
2015-Jul-09 13:33N 01°15' E 103°40'0 0.0
2015-Jul-09 12:33N 01°15' E 103°40'0 0.0
2015-Jul-09 11:21N 01°15' E 103°40'0 0.0
2015-Jul-09 10:30N 01°15' E 103°40'0 0.0
2015-Jul-09 09:30N 01°15' E 103°40'0 0.0
2015-Jul-09 08:30N 01°15' E 103°40'0 0.0
2015-Jul-09 07:30N 01°15' E 103°40'0 0.0
2015-Jul-09 06:30N 01°15' E 103°40'0 0.0
2015-Jul-09 05:18N 01°15' E 103°40'0 0.0
2015-Jul-09 04:33N 01°15' E 103°40'0 0.0
2015-Jul-09 03:15N 01°15' E 103°40'0 0.0
2015-Jul-09 02:33N 01°15' E 103°40'0 0.0
2015-Jul-09 01:30N 01°15' E 103°40'0 0.0
2015-Jul-09 00:30N 01°15' E 103°40'0 0.0
2015-Jul-08 23:30N 01°15' E 103°40'0 0.0
2015-Jul-08 22:30N 01°15' E 103°40'0 0.0
2015-Jul-08 21:30N 01°15' E 103°40'0 0.0
2015-Jul-08 20:30N 01°15' E 103°40'0 0.0
2015-Jul-08 19:33N 01°15' E 103°40'0 0.0
2015-Jul-08 18:30N 01°15' E 103°40'0 0.0
2015-Jul-08 17:30N 01°15' E 103°40'0 0.0
2015-Jul-08 16:27N 01°15' E 103°40'0 0.0
2015-Jul-08 15:30N 01°15' E 103°40'0 0.0
2015-Jul-08 14:06N 01°15' E 103°40'0 0.0
2015-Jul-08 13:30N 01°15' E 103°40'0 0.0
2015-Jul-08 12:24N 01°15' E 103°40'0 0.0
2015-Jul-08 11:30N 01°15' E 103°40'0 0.0
2015-Jul-08 10:33N 01°15' E 103°40'0 0.0
2015-Jul-08 09:24N 01°15' E 103°40'0 0.0
2015-Jul-08 07:33N 01°15' E 103°40'0 0.0
2015-Jul-08 06:33N 01°15' E 103°40'0 0.0
2015-Jul-08 05:27N 01°15' E 103°40'0 0.0
2015-Jul-08 04:06N 01°15' E 103°40'0 0.0
2015-Jul-08 01:06N 01°15' E 103°40'0 0.0
2015-Jul-08 00:30N 01°15' E 103°40'0 0.0
2015-Jul-07 21:09N 01°15' E 103°40'0 0.0
2015-Jul-07 19:21N 01°15' E 103°40'0 0.0
2015-Jul-07 17:33N 01°15' E 103°40'0 0.0
2015-Jul-07 13:27N 01°15' E 103°40'0 0.0
2015-Jul-07 11:09N 01°15' E 103°40'0 0.0
2015-Jul-07 10:15N 01°15' E 103°40'0 0.0
2015-Jul-07 09:18N 01°15' E 103°40'0 0.0
2015-Jul-07 08:33N 01°15' E 103°40'0 0.0
2015-Jul-07 07:24N 01°15' E 103°40'0 0.0
2015-Jul-07 05:18N 01°15' E 103°40'0 0.0
2015-Jul-07 04:24N 01°15' E 103°40'0 0.0
2015-Jul-07 00:33N 01°15' E 103°40'0 0.0
2015-Jul-06 22:12N 01°15' E 103°40'0 0.0
2015-Jul-06 21:33N 01°15' E 103°40'0 0.0
2015-Jul-06 20:18N 01°15' E 103°40'0 0.0
2015-Jul-06 19:27N 01°15' E 103°40'0 0.0
2015-Jul-06 13:27N 01°15' E 103°40'0 0.0
2015-Jul-06 12:18N 01°15' E 103°40'0 0.0
2015-Jul-06 11:30N 01°15' E 103°40'0 0.0
2015-Jul-06 09:24N 01°15' E 103°40'0 0.0
2015-Jul-06 08:30N 01°15' E 103°40'0 0.0
2015-Jul-06 05:06N 01°15' E 103°40'0 0.0
2015-Jul-06 04:30N 01°15' E 103°40'0 0.0
2015-Jul-06 02:33N 01°15' E 103°40'0 0.0
2015-Jul-06 01:09N 01°15' E 103°40'0 0.0
2015-Jul-06 00:24N 01°15' E 103°40'0 0.0
2015-Jul-05 23:21N 01°15' E 103°40'0 0.0
2015-Jul-05 22:30N 01°15' E 103°40'0 0.0
2015-Jul-05 21:33N 01°15' E 103°40'0 0.0
2015-Jul-05 20:06N 01°15' E 103°40'0 0.0
2015-Jul-05 19:30N 01°15' E 103°40'0 0.0
2015-Jul-05 18:15N 01°15' E 103°40'0 0.0
2015-Jul-05 17:27N 01°15' E 103°40'0 0.0
2015-Jul-05 16:33N 01°15' E 103°40'0 0.0
2015-Jul-05 15:30N 01°15' E 103°40'0 0.0
2015-Jul-05 14:30N 01°15' E 103°40'0 0.0
2015-Jul-05 13:21N 01°15' E 103°40'0 0.0
2015-Jul-05 11:12N 01°15' E 103°40'0 0.3
2015-Jul-05 10:32N 01°15' E 103°39'3 3.5
2015-Jul-05 09:33N 01°11' E 103°40'0 0.2
2015-Jul-05 08:33N 01°12' E 103°40'0 0.1
2015-Jul-05 07:32N 01°12' E 103°40'2 1.6
2015-Jul-05 06:31N 01°11' E 103°41'2 2.5
2015-Jul-05 05:33N 01°09' E 103°43'5 4.8
2015-Jul-05 04:33N 01°10' E 103°48'10 9.6
2015-Jul-05 03:33N 01°14' E 103°57'7 7.1
2015-Jul-05 02:33N 01°16' E 104°04'1110.6
2015-Jul-05 01:31N 01°18' E 104°14'  
Track history (hours):
 
Tides and Currents Weather Stations Pressure Air Temp Water Temp Dewpoint Dewpoint Depression Visibility Wind Speed Wind Dir Waves Ship Positions

Nippon Maru

Last reported at 2015-Jul-13 15:31 UTC. Time now 2015-Aug-04 01:21 UTC.
Position S 04°17' E 115°45'.
Warning: this ship's position is 21 days out of date.

Length 190 m; draft 6.3 m.

Type: Cargo ship. MMSI: 353814000.

Date/timePositionNaut miles runAvg speedWind from/ knotsBaromVisibWave heightAir tempDewpointWater temp
2015-Jul-13 15:31S 04°17' E 115°45'1312.6
2015-Jul-13 14:32S 04°18' E 115°33'11412.7
2015-Jul-13 05:32S 04°22' E 113°38'1311.6
2015-Jul-13 04:27S 04°21' E 113°26'3711.8
2015-Jul-13 01:21S 04°16' E 112°49'  
2015-Jul-10 19:32N 01°17' E 104°17'1414.1
2015-Jul-10 18:33N 01°15' E 104°03'1413.7
2015-Jul-10 17:33N 01°11' E 103°50'16 7.7
2015-Jul-10 15:30N 01°11' E 103°34'8 7.9
2015-Jul-10 14:33N 01°10' E 103°42'1 0.7
2015-Jul-10 13:24N 01°11' E 103°43'0 0.0
2015-Jul-10 12:12N 01°11' E 103°43'0 0.0
2015-Jul-10 11:24N 01°11' E 103°43'0 0.0
2015-Jul-10 08:15N 01°11' E 103°43'0 0.0
2015-Jul-10 07:30N 01°11' E 103°43'0 0.1
2015-Jul-10 06:27N 01°11' E 103°43'0 0.0
2015-Jul-10 04:30N 01°11' E 103°43'0 0.1
2015-Jul-10 03:24N 01°11' E 103°43'0 0.0
2015-Jul-10 02:12N 01°11' E 103°43'0 0.0
2015-Jul-10 00:33N 01°10' E 103°43'5 4.6
2015-Jul-09 23:32N 01°14' E 103°40'1 0.8
2015-Jul-09 22:30N 01°15' E 103°40'0 0.0
2015-Jul-09 21:33N 01°15' E 103°40'0 0.0
2015-Jul-09 19:27N 01°15' E 103°40'0 0.0
2015-Jul-09 18:21N 01°15' E 103°40'0 0.0
2015-Jul-09 17:30N 01°15' E 103°40'0 0.0
2015-Jul-09 16:09N 01°15' E 103°40'0 0.0
2015-Jul-09 15:27N 01°15' E 103°40'0 0.0
2015-Jul-09 13:33N 01°15' E 103°40'0 0.0
2015-Jul-09 12:33N 01°15' E 103°40'0 0.0
2015-Jul-09 11:21N 01°15' E 103°40'0 0.0
2015-Jul-09 10:30N 01°15' E 103°40'0 0.0
2015-Jul-09 09:30N 01°15' E 103°40'0 0.0
2015-Jul-09 08:30N 01°15' E 103°40'0 0.0
2015-Jul-09 07:30N 01°15' E 103°40'0 0.0
2015-Jul-09 06:30N 01°15' E 103°40'0 0.0
2015-Jul-09 05:18N 01°15' E 103°40'0 0.0
2015-Jul-09 04:33N 01°15' E 103°40'0 0.0
2015-Jul-09 03:15N 01°15' E 103°40'0 0.0
2015-Jul-09 02:33N 01°15' E 103°40'0 0.0
2015-Jul-09 01:30N 01°15' E 103°40'0 0.0
2015-Jul-09 00:30N 01°15' E 103°40'0 0.0
2015-Jul-08 23:30N 01°15' E 103°40'0 0.0
2015-Jul-08 22:30N 01°15' E 103°40'0 0.0
2015-Jul-08 21:30N 01°15' E 103°40'0 0.0
2015-Jul-08 20:30N 01°15' E 103°40'0 0.0
2015-Jul-08 19:33N 01°15' E 103°40'0 0.0
2015-Jul-08 18:30N 01°15' E 103°40'0 0.0
2015-Jul-08 17:30N 01°15' E 103°40'0 0.0
2015-Jul-08 16:27N 01°15' E 103°40'0 0.0
2015-Jul-08 15:30N 01°15' E 103°40'0 0.0
2015-Jul-08 14:06N 01°15' E 103°40'0 0.0
2015-Jul-08 13:30N 01°15' E 103°40'0 0.0
2015-Jul-08 12:24N 01°15' E 103°40'0 0.0
2015-Jul-08 11:30N 01°15' E 103°40'0 0.0
2015-Jul-08 10:33N 01°15' E 103°40'0 0.0
2015-Jul-08 09:24N 01°15' E 103°40'0 0.0
2015-Jul-08 07:33N 01°15' E 103°40'0 0.0
2015-Jul-08 06:33N 01°15' E 103°40'0 0.0
2015-Jul-08 05:27N 01°15' E 103°40'0 0.0
2015-Jul-08 04:06N 01°15' E 103°40'0 0.0
2015-Jul-08 01:06N 01°15' E 103°40'0 0.0
2015-Jul-08 00:30N 01°15' E 103°40'0 0.0
2015-Jul-07 21:09N 01°15' E 103°40'0 0.0
2015-Jul-07 19:21N 01°15' E 103°40'0 0.0
2015-Jul-07 17:33N 01°15' E 103°40'0 0.0
2015-Jul-07 13:27N 01°15' E 103°40'0 0.0
2015-Jul-07 11:09N 01°15' E 103°40'0 0.0
2015-Jul-07 10:15N 01°15' E 103°40'0 0.0
2015-Jul-07 09:18N 01°15' E 103°40'0 0.0
2015-Jul-07 08:33N 01°15' E 103°40'0 0.0
2015-Jul-07 07:24N 01°15' E 103°40'0 0.0
2015-Jul-07 05:18N 01°15' E 103°40'0 0.0
2015-Jul-07 04:24N 01°15' E 103°40'0 0.0
2015-Jul-07 00:33N 01°15' E 103°40'0 0.0
2015-Jul-06 22:12N 01°15' E 103°40'0 0.0
2015-Jul-06 21:33N 01°15' E 103°40'0 0.0
2015-Jul-06 20:18N 01°15' E 103°40'0 0.0
2015-Jul-06 19:27N 01°15' E 103°40'0 0.0
2015-Jul-06 13:27N 01°15' E 103°40'0 0.0
2015-Jul-06 12:18N 01°15' E 103°40'0 0.0
2015-Jul-06 11:30N 01°15' E 103°40'0 0.0
2015-Jul-06 09:24N 01°15' E 103°40'0 0.0
2015-Jul-06 08:30N 01°15' E 103°40'0 0.0
2015-Jul-06 05:06N 01°15' E 103°40'0 0.0
2015-Jul-06 04:30N 01°15' E 103°40'0 0.0
2015-Jul-06 02:33N 01°15' E 103°40'0 0.0
2015-Jul-06 01:09N 01°15' E 103°40'0 0.0
2015-Jul-06 00:24N 01°15' E 103°40'0 0.0
2015-Jul-05 23:21N 01°15' E 103°40'0 0.0
2015-Jul-05 22:30N 01°15' E 103°40'0 0.0
2015-Jul-05 21:33N 01°15' E 103°40'0 0.0
2015-Jul-05 20:06N 01°15' E 103°40'0 0.0
2015-Jul-05 19:30N 01°15' E 103°40'0 0.0
2015-Jul-05 18:15N 01°15' E 103°40'0 0.0
2015-Jul-05 17:27N 01°15' E 103°40'0 0.0
2015-Jul-05 16:33N 01°15' E 103°40'0 0.0
2015-Jul-05 15:30N 01°15' E 103°40'0 0.0
2015-Jul-05 14:30N 01°15' E 103°40'0 0.0
2015-Jul-05 13:21N 01°15' E 103°40'0 0.0
2015-Jul-05 11:12N 01°15' E 103°40'0 0.3
2015-Jul-05 10:32N 01°15' E 103°39'3 3.5
2015-Jul-05 09:33N 01°11' E 103°40'0 0.2
2015-Jul-05 08:33N 01°12' E 103°40'0 0.1
2015-Jul-05 07:32N 01°12' E 103°40'2 1.6
2015-Jul-05 06:31N 01°11' E 103°41'2 2.5
2015-Jul-05 05:33N 01°09' E 103°43'5 4.8
2015-Jul-05 04:33N 01°10' E 103°48'10 9.6
2015-Jul-05 03:33N 01°14' E 103°57'7 7.1
2015-Jul-05 02:33N 01°16' E 104°04'1110.6
2015-Jul-05 01:31N 01°18' E 104°14'  

Dump ship's entire track history